Time;durP1;ratioP1;P1;durP2;ratioP2;P2;SDS_P1;SDS_P2;PMS_P1;PMS_P2;Temp;Humidity;BMP_temperature;BMP_pressure;BME280_temperature;BME280_humidity;BME280_pressure;Samples;Min_cycle;Max_cycle;Signal;HPM_P1;HPM_P2
2023/02/07 00:00:36;;;;;;;16.10;7.28;;;;;;;-2.56;100.00;102340.22;5003875;28;20050;-78
2023/02/07 00:03:02;;;;;;;13.45;7.03;;;;;;;-2.64;100.00;102320.72;5009408;28;20512;-74
2023/02/07 00:05:28;;;;;;;10.20;5.65;;;;;;;-1.61;100.00;102466.44;5010505;28;20125;-75
2023/02/07 00:07:53;;;;;;;13.43;6.63;;;;;;;-2.45;100.00;102315.44;5013865;28;20030;-74
2023/02/07 00:10:19;;;;;;;10.75;6.78;;;;;;;-1.93;100.00;102454.34;5004804;28;20049;-74
2023/02/07 00:12:44;;;;;;;9.13;4.82;;;;;;;-2.37;100.00;102360.66;5006890;28;20502;-76
2023/02/07 00:15:10;;;;;;;13.25;7.18;;;;;;;-2.77;100.00;102311.06;5003775;28;20050;-74
2023/02/07 00:17:36;;;;;;;14.63;7.68;;;;;;;-1.60;100.00;102454.44;5004363;28;20498;-75
2023/02/07 00:20:01;;;;;;;11.30;5.38;;;;;;;-1.65;100.00;102420.63;5007694;28;20796;-74
2023/02/07 00:22:27;;;;;;;11.13;5.75;;;;;;;-1.33;100.00;102466.13;5001235;28;20084;-75
2023/02/07 00:24:52;;;;;;;11.88;6.30;;;;;;;-1.99;98.76;102344.91;5004523;28;20529;-76
2023/02/07 00:27:17;;;;;;;13.93;7.10;;;;;;;-1.75;100.00;102359.78;5002457;28;20149;-74
2023/02/07 00:29:44;;;;;;;12.52;5.88;;;;;;;-1.35;100.00;102455.69;5002041;28;20054;-75
2023/02/07 00:32:10;;;;;;;9.45;5.47;;;;;;;-1.27;97.04;102466.59;5004824;28;20034;-74
2023/02/07 00:34:35;;;;;;;11.50;6.88;;;;;;;-1.96;96.30;102418.09;5003724;28;20085;-73
2023/02/07 00:37:03;;;;;;;12.00;6.82;;;;;;;-1.70;97.64;102460.53;5003030;28;20533;-75
2023/02/07 00:39:29;;;;;;;14.43;5.95;;;;;;;-2.57;99.83;102311.06;5001223;28;20130;-75
2023/02/07 00:41:55;;;;;;;16.92;7.65;;;;;;;-2.13;99.53;102338.66;4996494;28;20165;-76
2023/02/07 00:44:20;;;;;;;13.50;5.57;;;;;;;-1.84;99.41;102446.50;5009906;28;20048;-75
2023/02/07 00:46:46;;;;;;;13.95;6.57;;;;;;;-2.53;98.51;102307.06;5009459;28;20477;-74
2023/02/07 00:49:11;;;;;;;13.50;7.03;;;;;;;-1.93;98.60;102430.31;5003629;28;20495;-74
2023/02/07 00:51:37;;;;;;;11.60;8.00;;;;;;;-2.82;98.16;102284.09;5006555;28;20834;-73
2023/02/07 00:54:03;;;;;;;16.08;10.23;;;;;;;-2.38;97.94;102331.47;5005129;28;20042;-74
2023/02/07 00:56:29;;;;;;;16.05;7.25;;;;;;;-1.67;100.00;102470.16;4998444;28;20046;-72
2023/02/07 00:58:55;;;;;;;15.95;7.57;;;;;;;-2.80;100.00;102296.28;5007918;28;20052;-75
2023/02/07 01:01:23;;;;;;;15.30;8.57;;;;;;;-2.02;100.00;102448.44;5005050;28;20125;-75
2023/02/07 01:03:49;;;;;;;17.48;6.68;;;;;;;-1.93;100.00;102449.22;5006098;28;20123;-74
2023/02/07 01:06:15;;;;;;;15.95;8.70;;;;;;;-2.50;100.00;102332.16;5005655;28;20071;-74
2023/02/07 01:08:40;;;;;;;15.98;7.68;;;;;;;-2.28;100.00;102406.81;4999873;28;20375;-74
2023/02/07 01:11:13;;;;;;;13.80;7.22;;;;;;;-2.14;100.00;102414.88;5000256;28;20034;-75
2023/02/07 01:13:42;;;;;;;11.00;7.32;;;;;;;-2.54;100.00;102302.72;5007249;28;20128;-75
2023/02/07 01:16:19;;;;;;;12.85;5.55;;;;;;;-2.01;100.00;102442.53;5006209;28;20045;-76
2023/02/07 01:18:45;;;;;;;10.70;5.70;;;;;;;-2.74;100.00;102297.56;5008925;28;20057;-75
2023/02/07 01:21:19;;;;;;;11.07;5.07;;;;;;;-2.48;100.00;102354.63;4994105;28;20042;-75
2023/02/07 01:23:45;;;;;;;12.07;6.72;;;;;;;-2.64;99.48;102313.91;4997443;28;20050;-78
2023/02/07 01:26:10;;;;;;;9.43;4.68;;;;;;;-2.07;99.03;102406.03;5004911;28;20490;-74
2023/02/07 01:28:36;;;;;;;10.45;4.65;;;;;;;-2.08;94.69;102395.59;5005485;28;20057;-76
2023/02/07 01:31:09;;;;;;;9.88;4.47;;;;;;;-2.89;95.02;102272.41;5004063;28;20070;-74
2023/02/07 01:33:36;;;;;;;11.57;5.70;;;;;;;-2.02;93.37;102453.59;5002575;28;20100;-76
2023/02/07 01:36:06;;;;;;;11.13;6.20;;;;;;;-2.64;92.10;102318.16;4995980;28;20084;-75
2023/02/07 01:38:32;;;;;;;7.65;3.63;;;;;;;-2.01;88.01;102442.53;4993048;28;20048;-78
2023/02/07 01:40:57;;;;;;;9.40;4.72;;;;;;;-2.80;89.27;102303.09;5000420;28;20395;-76
2023/02/07 01:43:24;;;;;;;9.80;5.90;;;;;;;-2.07;87.10;102428.28;5005932;28;20408;-76
2023/02/07 01:45:49;;;;;;;11.90;5.10;;;;;;;-2.88;85.86;102286.13;5009393;28;20045;-77
2023/02/07 01:48:33;;;;;;;7.38;3.97;;;;;;;-2.05;81.98;102432.78;5001215;28;20129;-76
2023/02/07 01:51:04;;;;;;;6.63;4.38;;;;;;;-2.23;81.23;102405.50;5018460;28;20490;-77
2023/02/07 01:53:31;;;;;;;7.53;4.32;;;;;;;-2.05;79.25;102429.31;4997382;28;20054;-75
2023/02/07 01:56:01;;;;;;;6.40;2.97;;;;;;;-2.01;78.29;102433.94;4997562;28;20121;-75
2023/02/07 01:58:30;;;;;;;11.15;3.97;;;;;;;-2.19;76.26;102407.56;5005998;28;20050;-74
2023/02/07 02:00:57;;;;;;;7.78;3.85;;;;;;;-2.96;76.65;102270.09;5007798;28;20390;-75
2023/02/07 02:03:23;;;;;;;9.13;4.25;;;;;;;-2.27;75.44;102400.88;4995988;28;20061;-75
2023/02/07 02:05:53;;;;;;;7.00;3.00;;;;;;;-2.05;75.94;102442.16;5002312;28;20050;-74
2023/02/07 02:08:22;;;;;;;11.23;3.78;;;;;;;-2.84;74.68;102273.69;5006457;28;20041;-75
2023/02/07 02:10:56;;;;;;;7.63;5.05;;;;;;;-2.02;76.03;102453.59;5005372;28;20041;-74
2023/02/07 02:13:51;;;;;;;10.25;5.43;;;;;;;-2.08;74.90;102449.59;5007597;28;20529;-79
2023/02/07 02:16:51;;;;;;;10.18;3.75;;;;;;;-2.06;76.40;102451.56;5003541;28;20041;-74
2023/02/07 02:19:26;;;;;;;6.53;3.33;;;;;;;-2.05;77.03;102452.44;4991400;28;20046;-74
2023/02/07 02:22:18;;;;;;;5.75;2.95;;;;;;;-2.23;76.88;102446.66;5017585;28;20168;-81
2023/02/07 02:25:12;;;;;;;5.55;3.15;;;;;;;-2.28;77.22;102455.66;4987652;28;20073;-75
2023/02/07 02:27:44;;;;;;;7.05;3.92;;;;;;;-2.25;77.60;102459.38;4994372;28;20046;-74
2023/02/07 02:30:51;;;;;;;5.68;2.97;;;;;;;-2.26;77.63;102456.69;4999629;28;20053;-77
2023/02/07 02:33:28;;;;;;;9.00;3.53;;;;;;;-2.39;80.09;102457.31;5001427;28;20038;-74
2023/02/07 02:36:15;;;;;;;7.50;4.05;;;;;;;-2.29;80.49;102467.63;4996787;28;20050;-74
2023/02/07 02:38:50;;;;;;;6.75;3.88;;;;;;;-2.39;81.08;102454.72;5010305;28;20053;-78
2023/02/07 02:41:27;;;;;;;8.43;4.75;;;;;;;-3.30;83.70;102315.06;5002535;28;20052;-75
2023/02/07 02:44:03;;;;;;;8.82;4.22;;;;;;;-2.97;83.56;102329.94;4994007;28;20026;-75
2023/02/07 02:46:37;;;;;;;12.93;7.28;;;;;;;-2.67;83.14;102353.84;4996345;28;20089;-75
2023/02/07 02:49:06;;;;;;;8.80;4.28;;;;;;;-2.26;83.21;102457.59;4998526;28;20045;-74
2023/02/07 02:51:32;;;;;;;8.93;4.15;;;;;;;-3.58;87.58;102288.69;4997075;28;20061;-75
2023/02/07 02:53:59;;;;;;;8.57;3.55;;;;;;;-2.52;88.28;102432.25;5004959;28;20038;-74
2023/02/07 02:56:43;;;;;;;6.97;3.05;;;;;;;-3.09;96.85;102322.09;5006027;28;20353;-74
2023/02/07 02:59:38;;;;;;;9.88;5.28;;;;;;;-3.18;100.00;102323.84;4994929;28;20167;-74
2023/02/07 03:02:42;;;;;;;7.43;3.70;;;;;;;-2.70;100.00;102469.19;4993758;28;20050;-73
2023/02/07 03:05:45;;;;;;;8.75;4.72;;;;;;;-2.26;100.00;102479.81;4991339;28;20060;-73
2023/02/07 03:08:11;;;;;;;11.27;4.60;;;;;;;-2.55;100.00;102479.13;4998632;28;20034;-75
2023/02/07 03:10:59;;;;;;;10.38;5.43;;;;;;;-3.17;100.00;102358.13;5000100;28;20038;-74
2023/02/07 03:13:48;;;;;;;7.70;4.25;;;;;;;-2.33;100.00;102481.88;5001504;28;20058;-72
2023/02/07 03:16:32;;;;;;;9.55;4.78;;;;;;;-2.27;100.00;102501.16;4997871;28;20058;-75
2023/02/07 03:19:07;;;;;;;;;;;;;;;-2.60;100.00;102479.50;5009796;28;20418;-72
2023/02/07 03:21:46;;;;;;;7.38;5.53;;;;;;;-3.11;100.00;102353.53;5004175;28;19928;-74
2023/02/07 03:24:25;;;;;;;9.82;4.78;;;;;;;-2.27;100.00;102491.78;4998726;28;20050;-76
2023/02/07 03:26:55;;;;;;;8.90;4.55;;;;;;;-2.54;100.00;102464.63;4990905;28;20062;-75
2023/02/07 03:29:22;;;;;;;8.73;4.32;;;;;;;-3.29;100.00;102325.50;4997548;28;20034;-74
2023/02/07 03:31:53;;;;;;;8.32;4.68;;;;;;;-2.84;100.00;102491.13;4995737;28;20631;-73
2023/02/07 03:34:28;;;;;;;14.32;5.38;;;;;;;-4.25;100.00;102349.50;5004268;28;20085;-74
2023/02/07 03:36:58;;;;;;;12.75;6.03;;;;;;;-3.44;100.00;102494.44;4989793;28;20533;-73
2023/02/07 03:39:24;;;;;;;7.72;4.40;;;;;;;-2.98;100.00;102490.78;4999892;28;20528;-74
2023/02/07 03:41:56;;;;;;;10.88;6.90;;;;;;;-3.37;100.00;102497.53;5001576;28;20042;-74
2023/02/07 03:44:25;;;;;;;13.60;6.47;;;;;;;-4.39;100.00;102324.28;4996814;28;20042;-74
2023/02/07 03:46:51;;;;;;;8.40;3.88;;;;;;;-4.17;100.00;102337.38;4997477;28;20069;-73
2023/02/07 03:49:16;;;;;;;9.82;6.10;;;;;;;-4.63;100.00;102289.66;5000111;28;20776;-76
2023/02/07 03:51:46;;;;;;;8.48;4.28;;;;;;;-3.90;100.00;102480.00;5006455;28;20069;-76
2023/02/07 03:54:12;;;;;;;9.75;4.47;;;;;;;-3.82;100.00;102501.19;5005165;28;20076;-76
2023/02/07 03:56:38;;;;;;;10.95;6.45;;;;;;;-4.59;100.00;102360.91;5002422;28;20533;-74
2023/02/07 03:59:04;;;;;;;14.98;7.28;;;;;;;-4.09;100.00;102472.28;5004584;28;20042;-73
2023/02/07 04:01:29;;;;;;;9.98;5.80;;;;;;;-3.94;100.00;102493.28;5008292;28;20037;-73
2023/02/07 04:03:55;;;;;;;13.38;6.47;;;;;;;-4.56;100.00;102389.38;5004788;28;20042;-74
2023/02/07 04:06:21;;;;;;;11.50;5.57;;;;;;;-4.28;100.00;102408.19;5010544;28;20497;-73
2023/02/07 04:08:46;;;;;;;9.18;4.47;;;;;;;-3.97;100.00;102492.13;5006252;28;20049;-73
2023/02/07 04:11:12;;;;;;;9.35;5.32;;;;;;;-4.05;100.00;102506.78;4999774;28;20080;-73
2023/02/07 04:13:37;;;;;;;9.20;5.32;;;;;;;-4.05;100.00;102512.81;4999748;28;20110;-73
2023/02/07 04:16:04;;;;;;;8.05;4.25;;;;;;;-4.33;100.00;102470.00;4999508;28;20042;-75
2023/02/07 04:18:30;;;;;;;14.43;7.45;;;;;;;-5.00;100.00;102339.13;5006553;28;20056;-74
2023/02/07 04:21:07;;;;;;;13.45;5.25;;;;;;;-5.15;100.00;102331.84;5006636;28;20412;-76
2023/02/07 04:23:33;;;;;;;10.82;4.70;;;;;;;-4.17;100.00;102497.94;4999121;28;20069;-74
2023/02/07 04:25:59;;;;;;;12.13;4.90;;;;;;;-4.47;100.00;102461.06;5005012;28;20042;-74
2023/02/07 04:28:25;;;;;;;8.70;4.10;;;;;;;-5.01;100.00;102366.41;5003548;28;20573;-74
2023/02/07 04:30:51;;;;;;;9.98;5.10;;;;;;;-5.27;100.00;102319.53;4997682;28;20134;-77
2023/02/07 04:33:17;;;;;;;10.90;5.07;;;;;;;-4.31;100.00;102496.66;5003481;28;20124;-74
2023/02/07 04:35:42;;;;;;;10.75;4.75;;;;;;;-4.64;100.00;102448.31;5008203;28;20160;-75
2023/02/07 04:38:08;;;;;;;10.77;6.65;;;;;;;-5.03;100.00;102369.53;5002239;28;20034;-75
2023/02/07 04:40:33;;;;;;;10.05;5.10;;;;;;;-4.33;100.00;102517.03;4999087;28;20062;-75
2023/02/07 04:43:00;;;;;;;8.27;4.28;;;;;;;-5.38;100.00;102319.44;5008923;28;20034;-76
2023/02/07 04:45:25;;;;;;;10.38;4.57;;;;;;;-5.08;100.00;102371.69;5004617;28;20048;-74
2023/02/07 04:47:51;;;;;;;10.98;5.55;;;;;;;-5.50;100.00;102315.72;5009396;28;20041;-75
2023/02/07 04:50:17;;;;;;;8.13;4.75;;;;;;;-4.91;100.00;102450.06;5010051;28;20041;-74
2023/02/07 04:52:43;;;;;;;9.93;7.03;;;;;;;-5.21;100.00;102395.22;5000390;28;20062;-75
2023/02/07 04:55:09;;;;;;;12.68;6.13;;;;;;;-5.43;100.00;102328.31;5005912;28;20496;-74
2023/02/07 04:57:35;;;;;;;9.82;6.20;;;;;;;-4.66;100.00;102478.88;5008940;28;20053;-74
2023/02/07 05:00:00;;;;;;;12.15;6.05;;;;;;;-5.25;100.00;102359.84;5003902;28;20045;-75
2023/02/07 05:02:26;;;;;;;9.63;5.47;;;;;;;-4.26;100.00;102510.84;5009308;28;20041;-75
2023/02/07 05:04:51;;;;;;;17.17;6.45;;;;;;;-5.30;100.00;102368.75;5005273;28;20026;-80
2023/02/07 05:07:17;;;;;;;10.02;6.55;;;;;;;-4.72;100.00;102470.66;4995332;28;20046;-72
2023/02/07 05:09:42;;;;;;;11.10;6.18;;;;;;;-4.30;100.00;102519.88;4994901;28;20050;-76
2023/02/07 05:12:08;;;;;;;9.65;5.65;;;;;;;-5.26;100.00;102360.63;5004948;28;20049;-76
2023/02/07 05:14:33;;;;;;;13.40;7.30;;;;;;;-5.23;100.00;102363.47;5004636;28;20766;-76
2023/02/07 05:16:59;;;;;;;19.90;8.32;;;;;;;-4.40;100.00;102531.66;5005250;28;20864;-79
2023/02/07 05:19:25;;;;;;;16.85;6.75;;;;;;;-4.81;100.00;102426.25;5000633;28;20053;-76
2023/02/07 05:21:51;;;;;;;11.80;6.95;;;;;;;-4.68;100.00;102401.03;4994880;28;20506;-74
2023/02/07 05:24:17;;;;;;;13.48;6.20;;;;;;;-4.63;100.00;102404.03;4998122;28;20053;-74
2023/02/07 05:26:42;;;;;;;15.32;6.53;;;;;;;-4.15;100.00;102504.13;4997924;28;20054;-75
2023/02/07 05:29:08;;;;;;;14.82;7.65;;;;;;;-3.70;100.00;102539.88;5000381;28;20041;-76
2023/02/07 05:34:17;;;;;;;20.85;10.35;;;;;;;-4.93;100.00;102426.00;5005344;28;20501;-75
2023/02/07 05:36:43;;;;;;;17.40;8.32;;;;;;;-4.82;100.00;102389.50;4997846;28;20080;-73
2023/02/07 05:39:08;;;;;;;14.60;9.40;;;;;;;-4.50;100.00;102417.19;5000031;28;20536;-74
2023/02/07 05:41:33;;;;;;;14.23;7.97;;;;;;;-4.97;100.00;102376.16;5008321;28;20874;-75
2023/02/07 05:44:00;;;;;;;11.65;7.95;;;;;;;-3.81;100.00;102518.41;5007565;28;20701;-76
2023/02/07 05:46:26;;;;;;;14.13;8.20;;;;;;;-3.54;100.00;102543.09;5007440;28;20140;-73
2023/02/07 05:48:51;;;;;;;19.73;12.05;;;;;;;-4.24;100.00;102409.34;4999682;28;20550;-73
2023/02/07 05:51:17;;;;;;;17.23;9.15;;;;;;;-3.35;100.00;102549.91;5001423;28;20105;-74
2023/02/07 05:53:43;;;;;;;13.00;8.18;;;;;;;-4.30;100.00;102371.25;5002817;28;20042;-74
2023/02/07 05:56:08;;;;;;;23.30;10.10;;;;;;;-3.88;100.00;102427.19;5005082;28;20670;-76
2023/02/07 05:58:34;;;;;;;15.63;9.07;;;;;;;-3.97;100.00;102390.44;5005313;28;20818;-75
2023/02/07 06:00:59;;;;;;;13.88;8.05;;;;;;;-3.58;100.00;102460.56;5000822;28;20046;-74
2023/02/07 06:03:25;;;;;;;17.00;7.97;;;;;;;-4.19;100.00;102400.44;5003245;28;20042;-75
2023/02/07 06:05:50;;;;;;;11.65;7.22;;;;;;;-4.49;100.00;102407.09;4996383;28;20045;-74
2023/02/07 06:08:16;;;;;;;15.95;9.27;;;;;;;-4.13;100.00;102448.78;5003244;28;20481;-77
2023/02/07 06:10:41;;;;;;;11.65;7.00;;;;;;;-4.29;100.00;102429.41;4998958;28;20052;-77
2023/02/07 06:13:06;;;;;;;12.38;6.40;;;;;;;-4.08;100.00;102389.47;5002152;28;20078;-74
2023/02/07 06:15:32;;;;;;;16.42;8.90;;;;;;;-3.24;100.00;102544.06;5007108;28;20042;-76
2023/02/07 06:17:57;;;;;;;14.70;6.80;;;;;;;-3.72;100.00;102515.75;4998995;28;20037;-73
2023/02/07 06:20:23;;;;;;;19.55;9.32;;;;;;;-4.05;100.00;102543.59;4999652;28;20196;-74
2023/02/07 06:22:49;;;;;;;14.82;7.22;;;;;;;-4.50;100.00;102430.91;5005027;28;20041;-74
2023/02/07 06:25:14;;;;;;;24.95;6.30;;;;;;;-3.98;100.00;102518.50;5006266;28;20196;-75
2023/02/07 06:27:40;;;;;;;21.88;8.43;;;;;;;-4.32;100.00;102423.13;5001110;28;20045;-76
2023/02/07 06:30:08;;;;;;;34.47;8.32;;;;;;;-3.67;100.00;102533.41;4996438;28;20042;-78
2023/02/07 06:32:33;;;;;;;10.77;6.55;;;;;;;-3.72;100.00;102542.34;4994114;28;20046;-75
2023/02/07 06:34:59;;;;;;;12.35;7.38;;;;;;;-3.79;100.00;102537.41;4991661;28;20029;-75
2023/02/07 06:37:24;;;;;;;12.80;7.80;;;;;;;-4.64;100.00;102418.47;4989453;28;20129;-75
2023/02/07 06:39:50;;;;;;;17.17;8.30;;;;;;;-3.85;100.00;102496.69;4996222;28;20062;-73
2023/02/07 06:42:15;;;;;;;30.20;10.35;;;;;;;-3.32;100.00;102522.84;4996142;28;20100;-74
2023/02/07 06:44:41;;;;;;;17.00;8.23;;;;;;;-4.00;100.00;102443.09;4995368;28;20050;-75
2023/02/07 06:47:09;;;;;;;14.20;7.57;;;;;;;-3.20;100.00;102529.09;4994789;28;20140;-74
2023/02/07 06:49:35;;;;;;;28.25;10.05;;;;;;;-3.75;100.00;102464.19;5000342;28;20065;-74
2023/02/07 06:52:00;;;;;;;15.52;8.27;;;;;;;-3.13;100.00;102557.88;5001185;28;20062;-74
2023/02/07 06:54:26;;;;;;;20.92;8.60;;;;;;;-4.19;100.00;102387.63;4999982;28;20162;-76
2023/02/07 06:56:51;;;;;;;14.60;9.10;;;;;;;-3.77;100.00;102523.06;5002499;28;20478;-74
2023/02/07 06:59:17;;;;;;;18.95;9.93;;;;;;;-4.06;100.00;102431.53;4997673;28;20698;-75
2023/02/07 07:01:42;;;;;;;24.35;11.70;;;;;;;-3.99;100.00;102406.47;4992920;28;20034;-75
2023/02/07 07:04:08;;;;;;;13.90;8.43;;;;;;;-2.97;100.00;102554.25;4998882;28;20065;-76
2023/02/07 07:06:33;;;;;;;17.85;10.75;;;;;;;-3.27;100.00;102554.06;5002655;28;20128;-76
2023/02/07 07:08:59;;;;;;;16.17;9.23;;;;;;;-4.21;100.00;102380.53;4999902;28;20056;-76
2023/02/07 07:11:24;;;;;;;19.30;10.77;;;;;;;-3.63;100.00;102535.47;4998281;28;20034;-76
2023/02/07 07:13:50;;;;;;;15.25;8.27;;;;;;;-2.97;100.00;102555.94;5003064;28;20109;-74
2023/02/07 07:16:15;;;;;;;17.05;10.48;;;;;;;-2.91;99.48;102556.44;4998083;28;20042;-74
2023/02/07 07:18:41;;;;;;;16.27;9.52;;;;;;;-3.17;100.00;102553.22;5000977;28;23465;-75
2023/02/07 07:21:08;;;;;;;14.05;7.85;;;;;;;-3.35;100.00;102571.31;5001422;28;20042;-76
2023/02/07 07:23:33;;;;;;;17.23;10.77;;;;;;;-3.21;100.00;102545.25;5005386;28;20153;-78
2023/02/07 07:25:59;;;;;;;14.27;9.18;;;;;;;-2.94;100.00;102543.34;5004726;28;20620;-76
2023/02/07 07:28:24;;;;;;;12.27;6.40;;;;;;;-4.11;100.00;102399.47;5002231;28;20399;-75
2023/02/07 07:30:50;;;;;;;12.25;7.10;;;;;;;-3.59;100.00;102484.44;5006966;28;20145;-78
2023/02/07 07:33:15;;;;;;;14.02;7.60;;;;;;;-3.54;100.00;102520.00;5005859;28;20050;-78
2023/02/07 07:35:41;;;;;;;12.95;6.95;;;;;;;-4.06;99.96;102430.63;4999415;28;20058;-77
2023/02/07 07:38:07;;;;;;;12.43;8.55;;;;;;;-3.32;100.00;102557.91;4998391;28;20064;-77
2023/02/07 07:40:32;;;;;;;17.92;9.48;;;;;;;-3.30;98.46;102549.56;4995081;28;20556;-76
2023/02/07 07:42:58;;;;;;;20.55;8.50;;;;;;;-3.09;99.11;102553.16;5008997;28;20065;-78
2023/02/07 07:45:23;;;;;;;14.45;9.23;;;;;;;-2.74;95.68;102560.50;4999950;28;20049;-76
2023/02/07 07:47:49;;;;;;;12.75;8.20;;;;;;;-2.92;96.91;102551.19;4999709;28;20216;-75
2023/02/07 07:50:14;;;;;;;28.20;8.63;;;;;;;-3.05;98.23;102524.41;4995535;28;20038;-75
2023/02/07 07:52:41;;;;;;;11.65;8.18;;;;;;;-2.72;93.25;102509.25;4996566;28;20038;-77
2023/02/07 07:55:07;;;;;;;14.93;7.50;;;;;;;-2.88;95.65;102564.44;4993999;28;20054;-76
2023/02/07 07:57:33;;;;;;;12.40;7.78;;;;;;;-3.69;96.63;102401.53;4998962;28;20045;-74
2023/02/07 07:59:59;;;;;;;34.42;7.72;;;;;;;-2.74;93.21;102555.38;5000636;28;20037;-74
2023/02/07 08:02:24;;;;;;;17.70;8.30;;;;;;;-3.42;94.27;102425.25;4998545;28;20049;-77
2023/02/07 08:04:50;;;;;;;13.50;6.68;;;;;;;-3.03;93.74;102452.66;5006945;28;20160;-76
2023/02/07 08:07:16;;;;;;;15.57;7.72;;;;;;;-3.53;91.47;102384.94;5001016;28;20046;-75
2023/02/07 08:09:42;;;;;;;16.27;8.20;;;;;;;-2.40;94.26;102560.91;5000478;28;20104;-76
2023/02/07 08:12:07;;;;;;;17.65;7.68;;;;;;;-2.14;86.85;102528.03;5003197;28;20038;-75
2023/02/07 08:14:33;;;;;;;16.08;7.85;;;;;;;-1.74;86.77;102548.53;5000920;28;20081;-76
2023/02/07 08:16:58;;;;;;;12.02;6.53;;;;;;;-1.87;85.26;102559.47;4999916;28;20044;-75
2023/02/07 08:19:24;;;;;;;18.27;7.50;;;;;;;-2.32;81.00;102421.06;4996239;28;20065;-74
2023/02/07 08:21:49;;;;;;;14.82;7.20;;;;;;;-2.18;78.65;102424.78;4999165;28;20112;-75
2023/02/07 08:24:15;;;;;;;16.23;7.45;;;;;;;-2.13;81.82;102505.81;4999704;28;20105;-75
2023/02/07 08:26:40;;;;;;;10.90;6.63;;;;;;;-2.34;80.15;102526.34;5000925;28;20450;-75
2023/02/07 08:29:06;;;;;;;10.60;7.38;;;;;;;-1.67;78.35;102544.81;5007408;28;20034;-73
2023/02/07 08:31:32;;;;;;;11.23;6.55;;;;;;;-1.49;76.35;102530.91;5003951;28;20042;-74
2023/02/07 08:33:57;;;;;;;15.90;9.15;;;;;;;-1.34;75.51;102557.88;5003444;28;20092;-75
2023/02/07 08:36:23;;;;;;;13.75;7.00;;;;;;;-1.47;73.92;102555.09;5000620;28;20057;-76
2023/02/07 08:38:50;;;;;;;15.32;7.28;;;;;;;-1.48;73.36;102509.50;5008591;28;20203;-75
2023/02/07 08:41:15;;;;;;;10.63;5.78;;;;;;;-2.01;72.21;102408.22;4992484;28;20037;-76
2023/02/07 08:43:43;;;;;;;9.70;6.07;;;;;;;-1.44;73.55;102524.44;5018776;28;20089;-74
2023/02/07 08:46:08;;;;;;;13.85;8.00;;;;;;;-2.36;74.34;102430.19;5008398;28;20041;-75
2023/02/07 08:48:34;;;;;;;16.88;8.93;;;;;;;-2.15;75.41;102479.06;5004122;28;20055;-76
2023/02/07 08:51:07;;;;;;;17.20;10.45;;;;;;;-2.32;76.29;102400.50;5000874;28;20082;-78
2023/02/07 08:53:33;;;;;;;13.40;7.28;;;;;;;-1.74;75.81;102518.53;5000045;28;20046;-76
2023/02/07 08:55:59;;;;;;;17.80;9.25;;;;;;;-1.88;72.21;102428.13;4997149;28;20046;-75
2023/02/07 08:58:25;;;;;;;15.05;8.13;;;;;;;-1.06;70.27;102543.03;4997273;28;20082;-75
2023/02/07 09:00:50;;;;;;;15.48;8.95;;;;;;;-1.44;69.75;102446.31;5004418;28;20517;-76
2023/02/07 09:03:15;;;;;;;18.75;10.45;;;;;;;-1.66;68.79;102395.66;4998174;28;20050;-74
2023/02/07 09:05:41;;;;;;;21.67;8.38;;;;;;;-0.86;69.48;102523.13;4992949;28;20746;-75
2023/02/07 09:08:06;;;;;;;19.13;8.60;;;;;;;-0.82;68.53;102444.38;4995982;28;20057;-75
2023/02/07 09:10:32;;;;;;;18.52;8.75;;;;;;;-0.49;65.86;102534.69;5003110;28;20505;-75
2023/02/07 09:12:58;;;;;;;17.92;11.65;;;;;;;-0.41;65.16;102514.66;5004992;28;20096;-73
2023/02/07 09:15:25;;;;;;;17.13;9.00;;;;;;;0.14;64.60;102518.94;4995174;28;20146;-76
2023/02/07 09:17:50;;;;;;;16.63;9.35;;;;;;;-0.41;62.54;102400.31;4999720;28;20041;-75
2023/02/07 09:20:16;;;;;;;14.63;7.18;;;;;;;-0.11;60.45;102510.09;5000553;28;20041;-74
2023/02/07 09:25:25;;;;;;;18.30;9.10;;;;;;;0.52;60.30;102487.34;5004899;28;20133;-75
2023/02/07 09:27:51;;;;;;;13.48;7.72;;;;;;;0.46;59.84;102462.75;5005575;28;20144;-75
2023/02/07 09:30:16;;;;;;;13.05;6.40;;;;;;;0.06;57.47;102396.13;5005821;28;20450;-73
2023/02/07 09:32:42;;;;;;;19.83;7.40;;;;;;;0.17;56.51;102400.41;4993074;28;20054;-74
2023/02/07 09:35:08;;;;;;;13.75;6.22;;;;;;;0.35;55.72;102472.25;4995968;28;20117;-73
2023/02/07 09:37:34;;;;;;;10.75;7.30;;;;;;;0.44;55.09;102461.72;4997020;28;20069;-74
2023/02/07 09:40:00;;;;;;;14.10;9.20;;;;;;;-0.14;55.64;102353.38;5001271;28;20049;-77
2023/02/07 09:42:46;;;;;;;17.38;7.75;;;;;;;-0.07;55.50;102339.22;5002404;28;20425;-75
2023/02/07 09:45:18;;;;;;;14.93;7.93;;;;;;;0.69;57.03;102446.34;5002132;28;20130;-75
2023/02/07 09:47:46;;;;;;;17.38;9.05;;;;;;;0.88;56.56;102474.41;5004017;28;20343;-74
2023/02/07 09:50:27;;;;;;;12.70;6.72;;;;;;;0.74;56.02;102481.16;5000143;28;20044;-76
2023/02/07 09:53:10;;;;;;;16.95;6.85;;;;;;;0.92;55.99;102467.00;5006207;28;20026;-77
2023/02/07 09:55:51;;;;;;;24.02;8.15;;;;;;;1.10;55.98;102463.94;5000992;28;20200;-76
2023/02/07 09:58:26;;;;;;;19.92;7.57;;;;;;;0.98;55.95;102453.59;5000212;28;20062;-74
2023/02/07 10:01:20;;;;;;;12.25;6.88;;;;;;;0.66;55.54;102464.22;4993332;28;20046;-76
2023/02/07 10:04:04;;;;;;;12.90;6.85;;;;;;;1.07;55.79;102461.13;4997626;28;20689;-74
2023/02/07 10:06:31;;;;;;;14.02;8.27;;;;;;;0.79;55.74;102436.78;5001484;28;20050;-74
2023/02/07 10:08:59;;;;;;;29.98;8.98;;;;;;;1.13;57.38;102467.66;4992659;28;20035;-74
2023/02/07 10:12:00;;;;;;;31.55;9.13;;;;;;;0.81;56.87;102417.13;4993401;28;20053;-78
2023/02/07 10:14:29;;;;;;;18.48;8.52;;;;;;;1.09;56.62;102460.44;5007393;28;20029;-76
2023/02/07 10:17:00;;;;;;;13.55;8.18;;;;;;;0.74;56.35;102443.28;4993521;28;20120;-80
2023/02/07 10:19:38;;;;;;;13.85;7.60;;;;;;;1.11;57.32;102442.47;5006806;28;20144;-75
2023/02/07 10:22:06;;;;;;;20.77;8.88;;;;;;;1.36;57.69;102435.66;5002659;28;20436;-73
2023/02/07 10:24:31;;;;;;;16.75;8.98;;;;;;;1.61;57.15;102437.34;5006286;28;20042;-76
2023/02/07 10:27:12;;;;;;;24.52;9.57;;;;;;;0.37;57.56;102324.41;4997015;28;20045;-74
2023/02/07 10:29:47;;;;;;;16.75;8.80;;;;;;;1.16;57.26;102444.59;4995614;28;20478;-75
2023/02/07 10:32:25;;;;;;;9.88;7.18;;;;;;;1.24;56.28;102425.34;4999557;28;20037;-74
2023/02/07 10:34:58;;;;;;;14.57;7.68;;;;;;;0.60;55.56;102295.06;4998826;28;20031;-74
2023/02/07 10:37:25;;;;;;;;;;;;;;;1.30;54.69;102434.31;5004254;28;20057;-74
2023/02/07 10:40:19;;;;;;;12.80;6.82;;;;;;;0.40;55.02;102313.44;5001477;28;20027;-75
2023/02/07 10:42:50;;;;;;;15.30;7.28;;;;;;;1.78;54.76;102422.97;5001121;28;20050;-74
2023/02/07 10:45:16;;;;;;;13.18;6.82;;;;;;;1.76;54.74;102417.72;5005426;28;20098;-75
2023/02/07 10:47:41;;;;;;;18.77;6.75;;;;;;;1.37;55.40;102421.03;4997898;28;20475;-74
2023/02/07 10:50:16;;;;;;;15.95;9.23;;;;;;;1.40;53.84;102427.28;5006809;28;20061;-73
2023/02/07 10:53:02;;;;;;;17.88;8.18;;;;;;;2.21;54.72;102419.00;5006033;28;20057;-75
2023/02/07 10:55:45;;;;;;;20.63;7.43;;;;;;;2.58;53.94;102430.88;5001622;28;20081;-75
2023/02/07 10:58:16;;;;;;;11.75;7.30;;;;;;;2.79;54.26;102390.78;4998392;28;20069;-76
2023/02/07 11:00:47;;;;;;;11.45;7.22;;;;;;;3.66;53.38;102412.56;5001486;28;20095;-76
2023/02/07 11:03:19;;;;;;;11.23;7.28;;;;;;;2.70;52.27;102372.94;4989520;28;20141;-75
2023/02/07 11:06:01;;;;;;;11.48;8.23;;;;;;;3.71;51.93;102382.59;5005193;28;20046;-76
2023/02/07 11:08:32;;;;;;;17.77;9.95;;;;;;;2.58;52.02;102309.97;5001566;28;20033;-75
2023/02/07 11:11:15;;;;;;;11.68;7.28;;;;;;;2.78;52.23;102376.00;4995760;28;20565;-76
2023/02/07 11:13:47;;;;;;;22.70;9.80;;;;;;;2.55;52.54;102294.22;4997911;28;20076;-75
2023/02/07 11:16:16;;;;;;;18.13;8.90;;;;;;;2.93;52.98;102394.25;5004291;28;20060;-77
2023/02/07 11:18:45;;;;;;;11.32;7.50;;;;;;;2.06;52.23;102267.78;4999433;28;20053;-75
2023/02/07 11:21:48;;;;;;;13.10;7.97;;;;;;;2.38;52.13;102396.78;5002764;28;20039;-75
2023/02/07 11:24:18;;;;;;;12.77;7.63;;;;;;;1.38;52.92;102293.50;4992041;28;20050;-76
2023/02/07 11:27:09;;;;;;;15.85;9.00;;;;;;;1.94;53.33;102362.78;4997178;28;20054;-76
2023/02/07 11:29:44;;;;;;;21.20;8.15;;;;;;;1.81;52.58;102356.78;4997243;28;20521;-75
2023/02/07 11:32:13;;;;;;;11.38;6.68;;;;;;;1.35;52.53;102278.66;5005556;28;20033;-74